sensor_id;sensor_type;location;lat;lon;timestamp;pressure;altitude;pressure_sealevel;temperature;humidity
73870;BME280;64924;42.140;24.762;2023-07-20T00:01:02;99156.78;;;30.93;34.98
73870;BME280;64924;42.140;24.762;2023-07-20T00:03:27;99124.38;;;30.63;35.00
73870;BME280;64924;42.140;24.762;2023-07-20T00:05:53;99183.41;;;30.87;34.79
73870;BME280;64924;42.140;24.762;2023-07-20T00:08:18;99196.63;;;30.86;34.87
73870;BME280;64924;42.140;24.762;2023-07-20T00:10:44;99193.97;;;30.90;34.89
73870;BME280;64924;42.140;24.762;2023-07-20T00:13:12;99182.66;;;30.99;34.64
73870;BME280;64924;42.140;24.762;2023-07-20T00:15:38;99181.09;;;30.89;34.41
73870;BME280;64924;42.140;24.762;2023-07-20T00:18:04;99174.81;;;30.71;34.26
73870;BME280;64924;42.140;24.762;2023-07-20T00:20:30;99169.41;;;30.66;34.33
73870;BME280;64924;42.140;24.762;2023-07-20T00:22:56;99162.69;;;30.58;34.67
73870;BME280;64924;42.140;24.762;2023-07-20T00:25:24;99137.44;;;30.58;34.54
73870;BME280;64924;42.140;24.762;2023-07-20T00:27:49;99117.50;;;30.51;34.15
73870;BME280;64924;42.140;24.762;2023-07-20T00:30:15;99112.84;;;30.55;33.74
73870;BME280;64924;42.140;24.762;2023-07-20T00:32:42;99116.72;;;30.72;33.87
73870;BME280;64924;42.140;24.762;2023-07-20T00:35:08;99111.59;;;30.74;33.46
73870;BME280;64924;42.140;24.762;2023-07-20T00:37:33;99095.59;;;30.74;33.40
73870;BME280;64924;42.140;24.762;2023-07-20T00:39:59;99097.59;;;30.86;32.93
73870;BME280;64924;42.140;24.762;2023-07-20T00:42:24;99083.84;;;30.93;32.70
73870;BME280;64924;42.140;24.762;2023-07-20T00:44:50;99082.94;;;31.01;32.54
73870;BME280;64924;42.140;24.762;2023-07-20T00:47:15;99061.41;;;30.93;32.61
73870;BME280;64924;42.140;24.762;2023-07-20T00:49:40;99067.81;;;30.93;32.43
73870;BME280;64924;42.140;24.762;2023-07-20T00:52:07;99070.75;;;30.97;32.34
73870;BME280;64924;42.140;24.762;2023-07-20T00:54:34;99085.06;;;31.04;32.18
73870;BME280;64924;42.140;24.762;2023-07-20T00:57:01;99101.50;;;31.14;31.92
73870;BME280;64924;42.140;24.762;2023-07-20T00:59:27;99085.84;;;31.13;31.84
73870;BME280;64924;42.140;24.762;2023-07-20T01:01:52;99076.81;;;31.20;31.85
73870;BME280;64924;42.140;24.762;2023-07-20T01:04:18;99088.53;;;31.22;31.76
73870;BME280;64924;42.140;24.762;2023-07-20T01:09:21;99089.03;;;31.36;31.57
73870;BME280;64924;42.140;24.762;2023-07-20T01:14:23;99042.69;;;31.18;31.69
73870;BME280;64924;42.140;24.762;2023-07-20T01:16:49;99006.84;;;31.03;31.22
73870;BME280;64924;42.140;24.762;2023-07-20T01:19:17;99060.03;;;31.44;31.70
73870;BME280;64924;42.140;24.762;2023-07-20T01:24:41;99052.09;;;31.46;31.44
73870;BME280;64924;42.140;24.762;2023-07-20T01:27:32;99051.50;;;31.41;32.12
73870;BME280;64924;42.140;24.762;2023-07-20T01:32:42;98996.03;;;31.13;31.53
73870;BME280;64924;42.140;24.762;2023-07-20T01:35:11;99045.03;;;31.28;32.05
73870;BME280;64924;42.140;24.762;2023-07-20T01:37:45;99032.84;;;31.24;32.00
73870;BME280;64924;42.140;24.762;2023-07-20T01:40:14;99043.84;;;31.29;31.97
73870;BME280;64924;42.140;24.762;2023-07-20T01:42:44;99049.94;;;31.31;31.75
73870;BME280;64924;42.140;24.762;2023-07-20T01:45:10;99051.13;;;31.30;31.67
73870;BME280;64924;42.140;24.762;2023-07-20T01:47:36;99022.44;;;31.12;32.18
73870;BME280;64924;42.140;24.762;2023-07-20T01:50:01;99050.63;;;31.16;31.90
73870;BME280;64924;42.140;24.762;2023-07-20T01:52:26;99040.31;;;31.20;32.14
73870;BME280;64924;42.140;24.762;2023-07-20T01:54:52;99041.53;;;31.19;31.84
73870;BME280;64924;42.140;24.762;2023-07-20T01:57:17;99000.28;;;30.99;32.13
73870;BME280;64924;42.140;24.762;2023-07-20T01:59:43;99040.09;;;31.25;32.55
73870;BME280;64924;42.140;24.762;2023-07-20T02:02:08;99034.38;;;31.21;32.52
73870;BME280;64924;42.140;24.762;2023-07-20T02:04:34;99037.78;;;31.15;32.32
73870;BME280;64924;42.140;24.762;2023-07-20T02:06:59;99017.03;;;31.07;32.50
73870;BME280;64924;42.140;24.762;2023-07-20T02:09:25;99046.53;;;31.25;32.94
73870;BME280;64924;42.140;24.762;2023-07-20T02:11:51;99049.22;;;31.22;32.43
73870;BME280;64924;42.140;24.762;2023-07-20T02:14:16;99045.38;;;31.27;32.54
73870;BME280;64924;42.140;24.762;2023-07-20T02:16:42;99047.00;;;31.28;32.51
73870;BME280;64924;42.140;24.762;2023-07-20T02:19:07;99047.72;;;31.24;32.62
73870;BME280;64924;42.140;24.762;2023-07-20T02:21:33;99060.38;;;31.31;32.58
73870;BME280;64924;42.140;24.762;2023-07-20T02:23:58;99045.50;;;31.30;32.75
73870;BME280;64924;42.140;24.762;2023-07-20T02:26:24;99052.53;;;31.36;32.58
73870;BME280;64924;42.140;24.762;2023-07-20T02:28:50;99056.50;;;31.35;32.24
73870;BME280;64924;42.140;24.762;2023-07-20T02:31:15;99055.91;;;31.30;32.57
73870;BME280;64924;42.140;24.762;2023-07-20T02:33:41;99064.25;;;31.05;33.02
73870;BME280;64924;42.140;24.762;2023-07-20T02:36:06;99068.34;;;30.75;33.51
73870;BME280;64924;42.140;24.762;2023-07-20T02:38:32;99048.22;;;30.52;33.64
73870;BME280;64924;42.140;24.762;2023-07-20T02:40:57;99051.84;;;30.52;33.67
73870;BME280;64924;42.140;24.762;2023-07-20T02:43:23;99041.75;;;30.60;33.71
73870;BME280;64924;42.140;24.762;2023-07-20T02:45:50;99042.09;;;30.58;33.83
73870;BME280;64924;42.140;24.762;2023-07-20T02:48:15;99052.63;;;30.62;33.87
73870;BME280;64924;42.140;24.762;2023-07-20T02:50:41;99053.91;;;30.64;33.72
73870;BME280;64924;42.140;24.762;2023-07-20T02:53:06;99046.81;;;30.67;33.82
73870;BME280;64924;42.140;24.762;2023-07-20T02:55:32;99053.38;;;30.71;33.52
73870;BME280;64924;42.140;24.762;2023-07-20T02:57:57;99043.53;;;30.65;33.49
73870;BME280;64924;42.140;24.762;2023-07-20T03:00:23;99048.09;;;30.69;33.90
73870;BME280;64924;42.140;24.762;2023-07-20T03:02:48;99044.06;;;30.58;34.01
73870;BME280;64924;42.140;24.762;2023-07-20T03:05:14;99039.63;;;30.57;34.09
73870;BME280;64924;42.140;24.762;2023-07-20T03:07:42;99040.59;;;30.61;34.11
73870;BME280;64924;42.140;24.762;2023-07-20T03:10:08;99034.03;;;30.57;33.96
73870;BME280;64924;42.140;24.762;2023-07-20T03:12:35;99041.19;;;30.67;34.04
73870;BME280;64924;42.140;24.762;2023-07-20T03:15:03;99034.44;;;30.68;33.59
73870;BME280;64924;42.140;24.762;2023-07-20T03:17:29;99051.59;;;30.66;33.65
73870;BME280;64924;42.140;24.762;2023-07-20T03:19:54;99039.09;;;30.64;33.87
73870;BME280;64924;42.140;24.762;2023-07-20T03:22:20;99005.66;;;30.38;34.28
73870;BME280;64924;42.140;24.762;2023-07-20T03:24:47;99034.97;;;30.61;34.06
73870;BME280;64924;42.140;24.762;2023-07-20T03:27:13;99025.41;;;30.62;33.62
73870;BME280;64924;42.140;24.762;2023-07-20T03:29:38;99045.22;;;30.78;33.76
73870;BME280;64924;42.140;24.762;2023-07-20T03:32:04;99039.16;;;30.88;33.17
73870;BME280;64924;42.140;24.762;2023-07-20T03:34:30;99002.34;;;30.77;33.07
73870;BME280;64924;42.140;24.762;2023-07-20T03:36:56;99034.31;;;31.09;33.15
73870;BME280;64924;42.140;24.762;2023-07-20T03:39:22;99024.78;;;31.22;32.77
73870;BME280;64924;42.140;24.762;2023-07-20T03:41:47;99009.22;;;31.25;32.66
73870;BME280;64924;42.140;24.762;2023-07-20T03:44:13;99015.69;;;31.50;32.12
73870;BME280;64924;42.140;24.762;2023-07-20T03:46:38;99015.81;;;31.66;32.12
73870;BME280;64924;42.140;24.762;2023-07-20T03:49:04;99021.94;;;31.80;31.82
73870;BME280;64924;42.140;24.762;2023-07-20T03:51:31;99011.94;;;31.95;31.56
73870;BME280;64924;42.140;24.762;2023-07-20T03:53:57;99021.53;;;32.06;31.74
73870;BME280;64924;42.140;24.762;2023-07-20T03:56:22;99009.34;;;32.14;31.54
73870;BME280;64924;42.140;24.762;2023-07-20T03:58:49;99018.97;;;32.25;31.24
73870;BME280;64924;42.140;24.762;2023-07-20T04:01:15;99024.06;;;32.35;31.31
73870;BME280;64924;42.140;24.762;2023-07-20T04:03:42;99024.78;;;32.32;31.37
73870;BME280;64924;42.140;24.762;2023-07-20T04:06:08;99030.84;;;32.46;31.22
73870;BME280;64924;42.140;24.762;2023-07-20T04:08:33;99023.44;;;32.54;31.12
73870;BME280;64924;42.140;24.762;2023-07-20T04:11:01;99037.53;;;32.70;30.99
73870;BME280;64924;42.140;24.762;2023-07-20T04:13:27;99030.56;;;32.64;31.21
73870;BME280;64924;42.140;24.762;2023-07-20T04:15:53;98988.41;;;32.51;31.23
73870;BME280;64924;42.140;24.762;2023-07-20T04:18:18;99033.16;;;32.84;30.35
73870;BME280;64924;42.140;24.762;2023-07-20T04:20:45;99037.22;;;32.99;30.65
73870;BME280;64924;42.140;24.762;2023-07-20T04:23:10;99034.56;;;33.06;30.60
73870;BME280;64924;42.140;24.762;2023-07-20T04:25:36;99036.03;;;33.16;30.54
73870;BME280;64924;42.140;24.762;2023-07-20T04:28:07;99036.56;;;33.06;30.60
73870;BME280;64924;42.140;24.762;2023-07-20T04:30:36;99037.69;;;33.17;30.66
73870;BME280;64924;42.140;24.762;2023-07-20T04:33:05;99041.47;;;33.09;31.18
73870;BME280;64924;42.140;24.762;2023-07-20T04:38:14;99056.38;;;33.09;30.86
73870;BME280;64924;42.140;24.762;2023-07-20T04:40:48;99056.19;;;33.02;30.70
73870;BME280;64924;42.140;24.762;2023-07-20T04:43:14;99044.22;;;32.77;31.17
73870;BME280;64924;42.140;24.762;2023-07-20T04:45:40;99044.25;;;32.65;30.80
73870;BME280;64924;42.140;24.762;2023-07-20T04:48:10;99049.00;;;32.49;31.22
73870;BME280;64924;42.140;24.762;2023-07-20T04:50:43;99057.22;;;32.42;31.36
73870;BME280;64924;42.140;24.762;2023-07-20T04:53:09;99061.09;;;32.37;31.77
73870;BME280;64924;42.140;24.762;2023-07-20T04:55:38;99068.25;;;32.35;31.61
73870;BME280;64924;42.140;24.762;2023-07-20T04:58:05;99075.75;;;32.18;31.82
73870;BME280;64924;42.140;24.762;2023-07-20T05:00:32;99072.16;;;32.30;31.82
73870;BME280;64924;42.140;24.762;2023-07-20T05:02:58;99065.53;;;32.50;31.27
73870;BME280;64924;42.140;24.762;2023-07-20T05:05:23;99069.41;;;32.86;30.96
73870;BME280;64924;42.140;24.762;2023-07-20T05:07:49;99073.09;;;33.18;30.87
73870;BME280;64924;42.140;24.762;2023-07-20T05:10:14;99056.53;;;33.29;30.47
73870;BME280;64924;42.140;24.762;2023-07-20T05:12:40;99061.72;;;33.42;30.13
73870;BME280;64924;42.140;24.762;2023-07-20T05:15:05;99066.09;;;33.40;30.20
73870;BME280;64924;42.140;24.762;2023-07-20T05:17:31;99020.88;;;33.20;30.37
73870;BME280;64924;42.140;24.762;2023-07-20T05:19:56;99050.28;;;33.67;29.96
73870;BME280;64924;42.140;24.762;2023-07-20T05:22:22;99036.75;;;33.72;30.03
73870;BME280;64924;42.140;24.762;2023-07-20T05:24:49;99060.81;;;34.01;29.79
73870;BME280;64924;42.140;24.762;2023-07-20T05:27:15;99045.84;;;34.16;29.60
73870;BME280;64924;42.140;24.762;2023-07-20T05:29:45;99055.28;;;34.40;29.07
73870;BME280;64924;42.140;24.762;2023-07-20T05:32:10;99018.16;;;34.38;28.65
73870;BME280;64924;42.140;24.762;2023-07-20T05:34:36;99045.31;;;34.81;28.05
73870;BME280;64924;42.140;24.762;2023-07-20T05:37:01;99042.56;;;34.84;27.69
73870;BME280;64924;42.140;24.762;2023-07-20T05:39:26;99048.31;;;34.53;28.19
73870;BME280;64924;42.140;24.762;2023-07-20T05:41:52;99057.75;;;34.41;28.36
73870;BME280;64924;42.140;24.762;2023-07-20T05:44:18;99047.81;;;34.47;28.37
73870;BME280;64924;42.140;24.762;2023-07-20T05:46:43;99003.66;;;34.59;28.07
73870;BME280;64924;42.140;24.762;2023-07-20T05:49:09;99018.63;;;35.21;27.36
73870;BME280;64924;42.140;24.762;2023-07-20T05:51:35;99029.06;;;35.85;26.14
73870;BME280;64924;42.140;24.762;2023-07-20T05:54:00;99021.72;;;36.33;25.16
73870;BME280;64924;42.140;24.762;2023-07-20T05:56:26;99024.94;;;36.95;24.61
73870;BME280;64924;42.140;24.762;2023-07-20T05:58:51;99031.50;;;37.40;24.29
73870;BME280;64924;42.140;24.762;2023-07-20T06:01:17;99017.41;;;37.98;23.31
73870;BME280;64924;42.140;24.762;2023-07-20T06:03:44;99017.03;;;38.72;22.80
73870;BME280;64924;42.140;24.762;2023-07-20T06:06:09;99009.47;;;39.40;21.91
73870;BME280;64924;42.140;24.762;2023-07-20T06:08:37;98999.75;;;39.84;21.19
73870;BME280;64924;42.140;24.762;2023-07-20T06:11:03;98998.47;;;40.28;20.86
73870;BME280;64924;42.140;24.762;2023-07-20T06:13:28;99003.63;;;40.79;20.04
73870;BME280;64924;42.140;24.762;2023-07-20T06:15:54;99004.16;;;41.26;19.25
73870;BME280;64924;42.140;24.762;2023-07-20T06:18:22;99000.19;;;41.64;19.09
73870;BME280;64924;42.140;24.762;2023-07-20T06:20:51;98998.22;;;42.02;18.56
73870;BME280;64924;42.140;24.762;2023-07-20T06:23:18;98998.41;;;42.26;17.99
73870;BME280;64924;42.140;24.762;2023-07-20T06:25:44;98995.69;;;42.49;18.14
73870;BME280;64924;42.140;24.762;2023-07-20T06:28:10;98983.06;;;42.77;17.63
73870;BME280;64924;42.140;24.762;2023-07-20T06:30:35;98995.94;;;43.23;17.60
73870;BME280;64924;42.140;24.762;2023-07-20T06:33:01;98954.38;;;43.65;16.88
73870;BME280;64924;42.140;24.762;2023-07-20T06:35:26;98964.84;;;43.95;16.74
73870;BME280;64924;42.140;24.762;2023-07-20T06:37:52;98977.88;;;44.82;16.56
73870;BME280;64924;42.140;24.762;2023-07-20T06:40:17;98980.28;;;45.20;15.56
73870;BME280;64924;42.140;24.762;2023-07-20T06:42:43;98991.88;;;45.81;14.92
73870;BME280;64924;42.140;24.762;2023-07-20T06:45:09;98990.13;;;46.16;14.49
73870;BME280;64924;42.140;24.762;2023-07-20T06:47:37;98985.63;;;46.32;14.23
73870;BME280;64924;42.140;24.762;2023-07-20T06:50:03;98985.34;;;46.26;14.51
73870;BME280;64924;42.140;24.762;2023-07-20T06:52:28;98975.41;;;46.43;14.45
73870;BME280;64924;42.140;24.762;2023-07-20T06:54:54;98985.81;;;46.66;14.11
73870;BME280;64924;42.140;24.762;2023-07-20T06:57:19;98996.31;;;46.44;14.10
73870;BME280;64924;42.140;24.762;2023-07-20T06:59:45;98979.34;;;46.20;14.37
73870;BME280;64924;42.140;24.762;2023-07-20T07:02:10;98985.44;;;46.22;14.37
73870;BME280;64924;42.140;24.762;2023-07-20T07:04:36;98977.66;;;46.65;13.61
73870;BME280;64924;42.140;24.762;2023-07-20T07:07:01;98995.06;;;46.86;13.38
73870;BME280;64924;42.140;24.762;2023-07-20T07:09:28;98988.81;;;47.42;13.46
73870;BME280;64924;42.140;24.762;2023-07-20T07:11:54;98982.00;;;47.36;13.71
73870;BME280;64924;42.140;24.762;2023-07-20T07:14:20;98966.91;;;47.32;13.38
73870;BME280;64924;42.140;24.762;2023-07-20T07:16:45;98987.63;;;47.02;13.70
73870;BME280;64924;42.140;24.762;2023-07-20T07:19:11;98944.47;;;46.76;13.65
73870;BME280;64924;42.140;24.762;2023-07-20T07:21:36;98976.69;;;46.97;14.03
73870;BME280;64924;42.140;24.762;2023-07-20T07:24:02;98974.13;;;46.86;14.14
73870;BME280;64924;42.140;24.762;2023-07-20T07:26:29;98975.31;;;47.26;14.02
73870;BME280;64924;42.140;24.762;2023-07-20T07:28:54;98970.84;;;47.51;13.69
73870;BME280;64924;42.140;24.762;2023-07-20T07:31:20;98982.91;;;47.58;13.65
73870;BME280;64924;42.140;24.762;2023-07-20T07:33:46;98943.13;;;47.06;13.26
73870;BME280;64924;42.140;24.762;2023-07-20T07:36:11;98964.25;;;47.00;13.52
73870;BME280;64924;42.140;24.762;2023-07-20T07:38:37;98977.81;;;46.32;13.80
73870;BME280;64924;42.140;24.762;2023-07-20T07:41:03;98972.88;;;46.16;14.16
73870;BME280;64924;42.140;24.762;2023-07-20T07:43:29;98974.44;;;46.05;14.48
73870;BME280;64924;42.140;24.762;2023-07-20T07:45:54;98969.25;;;46.00;14.49
73870;BME280;64924;42.140;24.762;2023-07-20T07:48:20;98972.41;;;45.73;14.42
73870;BME280;64924;42.140;24.762;2023-07-20T07:50:47;98963.81;;;45.24;15.14
73870;BME280;64924;42.140;24.762;2023-07-20T07:53:12;98968.81;;;45.52;14.83
73870;BME280;64924;42.140;24.762;2023-07-20T07:55:38;98959.69;;;45.57;14.41
73870;BME280;64924;42.140;24.762;2023-07-20T07:58:04;98965.13;;;45.68;14.96
73870;BME280;64924;42.140;24.762;2023-07-20T08:00:29;98966.78;;;46.14;14.51
73870;BME280;64924;42.140;24.762;2023-07-20T08:02:55;98962.63;;;46.32;14.16
73870;BME280;64924;42.140;24.762;2023-07-20T08:05:20;98952.59;;;46.07;14.06
73870;BME280;64924;42.140;24.762;2023-07-20T08:07:46;98965.31;;;46.51;14.41
73870;BME280;64924;42.140;24.762;2023-07-20T08:10:11;98970.25;;;46.22;14.41
73870;BME280;64924;42.140;24.762;2023-07-20T08:12:37;98938.47;;;46.00;14.08
73870;BME280;64924;42.140;24.762;2023-07-20T08:15:03;98976.91;;;45.25;14.48
73870;BME280;64924;42.140;24.762;2023-07-20T08:17:29;98964.25;;;44.07;15.89
73870;BME280;64924;42.140;24.762;2023-07-20T08:19:54;98969.59;;;43.82;16.25
73870;BME280;64924;42.140;24.762;2023-07-20T08:22:20;98949.94;;;43.84;15.68
73870;BME280;64924;42.140;24.762;2023-07-20T08:24:45;98965.00;;;43.41;16.70
73870;BME280;64924;42.140;24.762;2023-07-20T08:27:11;98949.13;;;43.37;16.13
73870;BME280;64924;42.140;24.762;2023-07-20T08:29:37;98971.41;;;43.95;15.81
73870;BME280;64924;42.140;24.762;2023-07-20T08:32:03;98957.38;;;44.01;15.69
73870;BME280;64924;42.140;24.762;2023-07-20T08:34:29;98968.16;;;44.37;15.37
73870;BME280;64924;42.140;24.762;2023-07-20T08:36:55;98973.66;;;44.27;15.54
73870;BME280;64924;42.140;24.762;2023-07-20T08:39:21;98944.50;;;43.89;15.67
73870;BME280;64924;42.140;24.762;2023-07-20T08:41:48;98969.22;;;44.03;15.88
73870;BME280;64924;42.140;24.762;2023-07-20T08:44:14;98972.56;;;43.98;16.42
73870;BME280;64924;42.140;24.762;2023-07-20T08:46:40;98967.13;;;44.07;16.35
73870;BME280;64924;42.140;24.762;2023-07-20T08:49:07;98961.69;;;44.13;15.88
73870;BME280;64924;42.140;24.762;2023-07-20T08:51:33;98972.47;;;44.05;16.09
73870;BME280;64924;42.140;24.762;2023-07-20T08:54:00;98959.56;;;44.17;16.28
73870;BME280;64924;42.140;24.762;2023-07-20T08:56:26;98927.63;;;43.75;16.18
73870;BME280;64924;42.140;24.762;2023-07-20T08:58:53;98941.97;;;43.48;16.83
73870;BME280;64924;42.140;24.762;2023-07-20T09:01:22;98952.28;;;43.15;16.90
73870;BME280;64924;42.140;24.762;2023-07-20T09:03:47;98923.22;;;42.66;17.62
73870;BME280;64924;42.140;24.762;2023-07-20T09:06:13;98923.97;;;42.36;17.40
73870;BME280;64924;42.140;24.762;2023-07-20T09:08:42;98935.59;;;42.22;18.17
73870;BME280;64924;42.140;24.762;2023-07-20T09:11:12;98922.31;;;42.09;18.53
73870;BME280;64924;42.140;24.762;2023-07-20T09:13:41;98891.50;;;41.52;18.81
73870;BME280;64924;42.140;24.762;2023-07-20T09:16:06;98917.97;;;41.52;19.08
73870;BME280;64924;42.140;24.762;2023-07-20T09:18:32;98897.38;;;41.30;18.90
73870;BME280;64924;42.140;24.762;2023-07-20T09:21:03;98930.94;;;41.60;18.99
73870;BME280;64924;42.140;24.762;2023-07-20T09:23:30;98901.28;;;41.51;19.49
73870;BME280;64924;42.140;24.762;2023-07-20T09:25:57;98915.19;;;41.45;19.16
73870;BME280;64924;42.140;24.762;2023-07-20T09:28:23;98917.72;;;40.73;19.72
73870;BME280;64924;42.140;24.762;2023-07-20T09:30:48;98906.09;;;40.47;19.92
73870;BME280;64924;42.140;24.762;2023-07-20T09:33:24;98897.06;;;40.55;20.31
73870;BME280;64924;42.140;24.762;2023-07-20T09:35:49;98893.34;;;40.65;19.89
73870;BME280;64924;42.140;24.762;2023-07-20T09:38:15;98895.16;;;40.38;19.96
73870;BME280;64924;42.140;24.762;2023-07-20T09:40:41;98893.13;;;40.28;20.28
73870;BME280;64924;42.140;24.762;2023-07-20T09:43:08;98889.59;;;39.95;20.71
73870;BME280;64924;42.140;24.762;2023-07-20T09:45:40;98883.09;;;39.95;20.32
73870;BME280;64924;42.140;24.762;2023-07-20T09:48:08;98881.88;;;39.78;20.55
73870;BME280;64924;42.140;24.762;2023-07-20T09:50:39;98849.84;;;39.63;20.70
73870;BME280;64924;42.140;24.762;2023-07-20T09:53:05;98879.88;;;39.75;20.73
73870;BME280;64924;42.140;24.762;2023-07-20T09:55:32;98862.03;;;39.71;20.46
73870;BME280;64924;42.140;24.762;2023-07-20T09:57:59;98880.25;;;39.77;20.71
73870;BME280;64924;42.140;24.762;2023-07-20T10:00:25;98868.13;;;39.62;20.74
73870;BME280;64924;42.140;24.762;2023-07-20T10:02:52;98859.19;;;39.71;20.52
73870;BME280;64924;42.140;24.762;2023-07-20T10:05:19;98821.00;;;39.61;20.64
73870;BME280;64924;42.140;24.762;2023-07-20T10:07:47;98852.69;;;39.70;21.19
73870;BME280;64924;42.140;24.762;2023-07-20T10:10:15;98866.53;;;39.08;21.45
73870;BME280;64924;42.140;24.762;2023-07-20T10:12:43;98854.31;;;38.65;22.04
73870;BME280;64924;42.140;24.762;2023-07-20T10:15:24;98853.50;;;38.64;22.43
73870;BME280;64924;42.140;24.762;2023-07-20T10:18:12;98832.41;;;38.76;22.08
73870;BME280;64924;42.140;24.762;2023-07-20T10:20:40;98838.13;;;38.97;22.05
73870;BME280;64924;42.140;24.762;2023-07-20T10:23:09;98826.34;;;38.81;22.34
73870;BME280;64924;42.140;24.762;2023-07-20T10:25:35;98835.25;;;38.69;22.34
73870;BME280;64924;42.140;24.762;2023-07-20T10:28:07;98834.84;;;38.70;22.53
73870;BME280;64924;42.140;24.762;2023-07-20T10:30:36;98830.38;;;38.76;22.46
73870;BME280;64924;42.140;24.762;2023-07-20T10:33:06;98821.88;;;38.94;21.88
73870;BME280;64924;42.140;24.762;2023-07-20T10:35:57;98812.94;;;39.24;21.66
73870;BME280;64924;42.140;24.762;2023-07-20T10:41:27;98806.41;;;39.52;21.15
73870;BME280;64924;42.140;24.762;2023-07-20T10:43:58;98814.50;;;39.68;21.25
73870;BME280;64924;42.140;24.762;2023-07-20T10:46:45;98813.59;;;39.96;20.84
73870;BME280;64924;42.140;24.762;2023-07-20T10:49:12;98772.63;;;39.68;20.41
73870;BME280;64924;42.140;24.762;2023-07-20T10:51:46;98815.66;;;39.77;20.33
73870;BME280;64924;42.140;24.762;2023-07-20T10:56:42;98796.47;;;40.06;20.52
73870;BME280;64924;42.140;24.762;2023-07-20T11:01:49;98783.94;;;39.79;20.99
73870;BME280;64924;42.140;24.762;2023-07-20T11:04:15;98784.28;;;40.02;20.71
73870;BME280;64924;42.140;24.762;2023-07-20T11:06:45;98773.50;;;40.38;20.26
73870;BME280;64924;42.140;24.762;2023-07-20T11:09:14;98783.91;;;40.59;20.04
73870;BME280;64924;42.140;24.762;2023-07-20T11:11:46;98777.94;;;40.47;19.51
73870;BME280;64924;42.140;24.762;2023-07-20T11:14:22;98775.41;;;40.52;19.12
73870;BME280;64924;42.140;24.762;2023-07-20T11:16:50;98772.56;;;40.52;18.32
73870;BME280;64924;42.140;24.762;2023-07-20T11:19:24;98784.09;;;40.34;18.40
73870;BME280;64924;42.140;24.762;2023-07-20T11:21:52;98779.22;;;40.35;18.37
73870;BME280;64924;42.140;24.762;2023-07-20T11:24:18;98780.38;;;40.45;18.87
73870;BME280;64924;42.140;24.762;2023-07-20T11:26:50;98772.53;;;40.59;18.22
73870;BME280;64924;42.140;24.762;2023-07-20T11:29:18;98770.38;;;40.74;17.91
73870;BME280;64924;42.140;24.762;2023-07-20T11:31:45;98743.97;;;40.66;17.99
73870;BME280;64924;42.140;24.762;2023-07-20T11:34:14;98746.81;;;40.70;18.26
73870;BME280;64924;42.140;24.762;2023-07-20T11:36:41;98751.50;;;40.42;18.25
73870;BME280;64924;42.140;24.762;2023-07-20T11:39:11;98748.72;;;40.35;18.29
73870;BME280;64924;42.140;24.762;2023-07-20T11:41:37;98707.66;;;40.26;18.28
73870;BME280;64924;42.140;24.762;2023-07-20T11:44:04;98745.56;;;40.71;18.45
73870;BME280;64924;42.140;24.762;2023-07-20T11:46:31;98738.22;;;40.77;18.49
73870;BME280;64924;42.140;24.762;2023-07-20T11:48:58;98740.63;;;40.82;18.56
73870;BME280;64924;42.140;24.762;2023-07-20T11:51:28;98744.72;;;40.81;17.83
73870;BME280;64924;42.140;24.762;2023-07-20T11:53:54;98735.78;;;40.79;18.42
73870;BME280;64924;42.140;24.762;2023-07-20T11:56:20;98731.13;;;40.92;18.00
73870;BME280;64924;42.140;24.762;2023-07-20T11:58:47;98739.59;;;41.03;18.25
73870;BME280;64924;42.140;24.762;2023-07-20T12:01:13;98725.69;;;41.08;18.11
73870;BME280;64924;42.140;24.762;2023-07-20T12:03:39;98729.50;;;41.32;18.05
73870;BME280;64924;42.140;24.762;2023-07-20T12:06:08;98727.69;;;41.49;18.03
73870;BME280;64924;42.140;24.762;2023-07-20T12:08:34;98707.59;;;41.26;17.96
73870;BME280;64924;42.140;24.762;2023-07-20T12:11:00;98713.16;;;41.36;17.90
73870;BME280;64924;42.140;24.762;2023-07-20T12:13:44;98702.22;;;41.31;17.92
73870;BME280;64924;42.140;24.762;2023-07-20T12:16:14;98705.28;;;41.14;17.93
73870;BME280;64924;42.140;24.762;2023-07-20T12:18:40;98694.19;;;41.23;18.12
73870;BME280;64924;42.140;24.762;2023-07-20T12:21:06;98693.25;;;41.33;18.21
73870;BME280;64924;42.140;24.762;2023-07-20T12:23:40;98681.41;;;41.34;18.45
73870;BME280;64924;42.140;24.762;2023-07-20T12:26:10;98681.00;;;41.36;18.25
73870;BME280;64924;42.140;24.762;2023-07-20T12:28:39;98647.41;;;41.20;18.45
73870;BME280;64924;42.140;24.762;2023-07-20T12:31:08;98669.84;;;41.49;18.63
73870;BME280;64924;42.140;24.762;2023-07-20T12:33:35;98659.38;;;41.38;18.10
73870;BME280;64924;42.140;24.762;2023-07-20T12:36:01;98614.19;;;41.03;17.99
73870;BME280;64924;42.140;24.762;2023-07-20T12:38:27;98648.09;;;41.28;18.48
73870;BME280;64924;42.140;24.762;2023-07-20T12:40:56;98633.97;;;41.21;18.50
73870;BME280;64924;42.140;24.762;2023-07-20T12:43:22;98644.88;;;41.26;18.45
73870;BME280;64924;42.140;24.762;2023-07-20T12:45:48;98639.13;;;41.29;18.24
73870;BME280;64924;42.140;24.762;2023-07-20T12:48:13;98643.19;;;41.28;18.11
73870;BME280;64924;42.140;24.762;2023-07-20T12:50:39;98632.59;;;41.29;18.27
73870;BME280;64924;42.140;24.762;2023-07-20T12:53:05;98637.06;;;41.30;18.64
73870;BME280;64924;42.140;24.762;2023-07-20T12:55:30;98639.16;;;41.26;18.82
73870;BME280;64924;42.140;24.762;2023-07-20T12:57:56;98633.63;;;41.12;18.72
73870;BME280;64924;42.140;24.762;2023-07-20T13:00:22;98607.94;;;40.81;18.76
73870;BME280;64924;42.140;24.762;2023-07-20T13:02:48;98651.72;;;40.94;18.30
73870;BME280;64924;42.140;24.762;2023-07-20T13:05:14;98649.75;;;40.88;18.67
73870;BME280;64924;42.140;24.762;2023-07-20T13:07:40;98658.69;;;40.90;18.95
73870;BME280;64924;42.140;24.762;2023-07-20T13:10:07;98659.66;;;40.80;19.17